地図

経路データ

SID SEASON NUMBER BASIN SUBBASIN NAME ISO_TIME NATURE LAT LON WMO_WIND WMO_PRES WMO_AGENCY TRACK_TYPE DIST2LAND LANDFALL IFLAG USA_AGENCY USA_ATCF_ID USA_LAT USA_LON USA_RECORD USA_STATUS USA_WIND USA_PRES USA_SSHS USA_R34_NE USA_R34_SE USA_R34_SW USA_R34_NW USA_R50_NE USA_R50_SE USA_R50_SW USA_R50_NW USA_R64_NE USA_R64_SE USA_R64_SW USA_R64_NW USA_POCI USA_ROCI USA_RMW USA_EYE TOKYO_LAT TOKYO_LON TOKYO_GRADE TOKYO_WIND TOKYO_PRES TOKYO_R50_DIR TOKYO_R50_LONG TOKYO_R50_SHORT TOKYO_R30_DIR TOKYO_R30_LONG TOKYO_R30_SHORT TOKYO_LAND CMA_LAT CMA_LON CMA_CAT CMA_WIND CMA_PRES HKO_LAT HKO_LON HKO_CAT HKO_WIND HKO_PRES NEWDELHI_LAT NEWDELHI_LON NEWDELHI_GRADE NEWDELHI_WIND NEWDELHI_PRES NEWDELHI_CI NEWDELHI_DP NEWDELHI_POCI REUNION_LAT REUNION_LON REUNION_TYPE REUNION_WIND REUNION_PRES REUNION_TNUM REUNION_CI REUNION_RMW REUNION_R34_NE REUNION_R34_SE REUNION_R34_SW REUNION_R34_NW REUNION_R50_NE REUNION_R50_SE REUNION_R50_SW REUNION_R50_NW REUNION_R64_NE REUNION_R64_SE REUNION_R64_SW REUNION_R64_NW BOM_LAT BOM_LON BOM_TYPE BOM_WIND BOM_PRES BOM_TNUM BOM_CI BOM_RMW BOM_R34_NE BOM_R34_SE BOM_R34_SW BOM_R34_NW BOM_R50_NE BOM_R50_SE BOM_R50_SW BOM_R50_NW BOM_R64_NE BOM_R64_SE BOM_R64_SW BOM_R64_NW BOM_ROCI BOM_POCI BOM_EYE BOM_POS_METHOD BOM_PRES_METHOD NADI_LAT NADI_LON NADI_CAT NADI_WIND NADI_PRES WELLINGTON_LAT WELLINGTON_LON WELLINGTON_WIND WELLINGTON_PRES DS824_LAT DS824_LON DS824_STAGE DS824_WIND DS824_PRES TD9636_LAT TD9636_LON TD9636_STAGE TD9636_WIND TD9636_PRES TD9635_LAT TD9635_LON TD9635_WIND TD9635_PRES TD9635_ROCI NEUMANN_LAT NEUMANN_LON NEUMANN_CLASS NEUMANN_WIND NEUMANN_PRES MLC_LAT MLC_LON MLC_CLASS MLC_WIND MLC_PRES USA_GUST BOM_GUST BOM_GUST_PER REUNION_GUST REUNION_GUST_PER USA_SEAHGT USA_SEARAD_NE USA_SEARAD_SE USA_SEARAD_SW USA_SEARAD_NW STORM_SPEED STORM_DIR
1916295N12088 1916 61 NI BB NOT_NAMED 1916-10-21 00:00:00 TS 12.2000 87.9000 main 778 754 _________O____ -1 12.2000 87.9000 TC 34 5 294
1916295N12088 1916 61 NI BB NOT_NAMED 1916-10-21 03:00:00 TS 12.3000 87.6700 main 754 722 _________PO___ -1 12.3501 87.5551 TC 36 12.2000 87.9000 2 6 293
1916295N12088 1916 61 NI BB NOT_NAMED 1916-10-21 06:00:00 TS 12.4383 87.3301 main 714 675 _________OP___ -1 12.5000 87.2000 TC 39 12.3458 87.5254 2 7 293
1916295N12088 1916 61 NI BB NOT_NAMED 1916-10-21 09:00:00 TS 12.5827 86.9744 main 675 644 _________PP___ -1 12.6500 86.8350 TC 42 12.4931 87.1604 2 7 293
1916295N12088 1916 61 NI BB NOT_NAMED 1916-10-21 12:00:00 TS 12.7219 86.6576 main 644 605 _________OP___ -1 12.8000 86.5000 TC 45 12.6438 86.8152 2 7 296
1916295N12088 1916 61 NI BB NOT_NAMED 1916-10-21 15:00:00 TS 12.8712 86.3675 main 605 573 _________PO___ -1 12.9424 86.2349 TC 45 12.8000 86.5000 3 6 300
1916295N12088 1916 61 NI BB NOT_NAMED 1916-10-21 18:00:00 TS 13.0318 86.1105 main 573 542 _________OP___ -1 13.1000 86.0000 TC 45 12.9635 86.2211 3 6 305
1916295N12088 1916 61 NI BB NOT_NAMED 1916-10-21 21:00:00 TS 13.2136 85.8599 main 542 503 _________PP___ -1 13.2925 85.7500 TC 45 13.1347 85.9698 3 6 308
1916295N12088 1916 61 NI BB NOT_NAMED 1916-10-22 00:00:00 TS 13.4068 85.6168 main 503 472 _________OP___ -1 13.5000 85.5000 TC 45 13.3136 85.7336 3 6 309
1916295N12088 1916 61 NI BB NOT_NAMED 1916-10-22 03:00:00 TS 13.6000 85.3750 main 472 434 _________PO___ -1 13.7000 85.2500 TC 45 13.5000 85.5000 3 6 309
1916295N12088 1916 61 NI BB NOT_NAMED 1916-10-22 06:00:00 TS 13.7902 85.1310 main 434 403 _________OP___ -1 13.9000 85.0000 TC 45 13.6805 85.2619 3 6 309
1916295N12088 1916 61 NI BB NOT_NAMED 1916-10-22 09:00:00 TS 13.9811 84.8935 main 403 372 _________PP___ -1 14.0924 84.7649 TC 45 13.8698 85.0220 3 6 309
1916295N12088 1916 61 NI BB NOT_NAMED 1916-10-22 12:00:00 TS 14.1871 84.6356 main 364 326 _________OP___ -1 14.3000 84.5000 TC 45 14.0742 84.7712 3 7 309
1916295N12088 1916 61 NI BB NOT_NAMED 1916-10-22 15:00:00 TS 14.4175 84.3288 main 326 279 _________PO___ -1 14.5350 84.1575 TC 45 14.3000 84.5000 3 8 308
1916295N12088 1916 61 NI BB NOT_NAMED 1916-10-22 18:00:00 TS 14.6747 84.0003 main 279 242 _________OP___ -1 14.8000 83.8000 TC 45 14.5493 84.2005 3 8 311
1916295N12088 1916 61 NI BB NOT_NAMED 1916-10-22 21:00:00 TS 14.9562 83.6899 main 233 195 _________PP___ -1 15.0924 83.4999 TC 45 14.8199 83.8798 3 8 314
1916295N12088 1916 61 NI BB NOT_NAMED 1916-10-23 00:00:00 TS 15.2528 83.3721 main 187 144 _________OP___ -1 15.4000 83.2000 TC 45 15.1056 83.5442 3 9 313
1916295N12088 1916 61 NI BB NOT_NAMED 1916-10-23 03:00:00 TS 15.5500 83.0287 main 144 99 _________PO___ -1 15.7000 82.8574 TC 41 15.4000 83.2000 3 9 312
1916295N12088 1916 61 NI BB NOT_NAMED 1916-10-23 06:00:00 TS 15.8504 82.6785 main 89 49 _________OP___ -1 16.0000 82.5000 TC 37 15.7008 82.8571 3 9 312
1916295N12088 1916 61 NI BB NOT_NAMED 1916-10-23 09:00:00 TS 16.1574 82.3287 main 39 10 _________PP___ -1 16.3074 82.1499 TC 33 16.0073 82.5074 3 9 312
1916295N12088 1916 61 NI BB NOT_NAMED 1916-10-23 12:00:00 TS 16.4551 81.9770 main 0 0 _________OP___ -1 16.6000 81.8000 TC 30 16.3102 82.1540 3 9 310
1916295N12088 1916 61 NI BB NOT_NAMED 1916-10-23 15:00:00 TS 16.7287 81.6249 main 0 0 _________PO___ -1 16.8574 81.4499 TC 30 16.6000 81.8000 1 9 308
1916295N12088 1916 61 NI BB NOT_NAMED 1916-10-23 18:00:00 TS 16.9882 81.2709 main 0 0 _________OP___ -1 17.1000 81.1000 TC 30 16.8765 81.4417 1 9 308
1916295N12088 1916 61 NI BB NOT_NAMED 1916-10-23 21:00:00 TS 17.2512 80.9137 main 0 0 _________PP___ -1 17.3650 80.7425 TC 30 17.1374 81.0849 1 8 307
1916295N12088 1916 61 NI BB NOT_NAMED 1916-10-24 00:00:00 TS 17.4898 80.5678 main 0 0 _________OP___ -1 17.6000 80.4000 TC 30 17.3796 80.7355 1 8 304
1916295N12088 1916 61 NI BB NOT_NAMED 1916-10-24 03:00:00 TS 17.6787 80.2462 main 0 0 _________PO___ -1 17.7574 80.0923 TC 30 17.6000 80.4000 1 7 301
1916295N12088 1916 61 NI BB NOT_NAMED 1916-10-24 06:00:00 TS 17.8482 79.9426 main 0 0 _________OP___ -1 17.9000 79.8000 TC 30 17.7963 80.0852 1 7 302
1916295N12088 1916 61 NI BB NOT_NAMED 1916-10-24 09:00:00 TS 18.0323 79.6497 main 0 0 _________PP___ -1 18.0924 79.5149 TC 30 17.9722 79.7844 1 7 303
1916295N12088 1916 61 NI BB NOT_NAMED 1916-10-24 12:00:00 TS 18.2185 79.3457 main 0 0 _________OP___ -1 18.3000 79.2000 TC 30 18.1369 79.4915 1 7 301
1916295N12088 1916 61 NI BB NOT_NAMED 1916-10-24 15:00:00 TS 18.4038 78.9926 main 0 0 _________PO___ -1 18.5077 78.7851 TC 30 18.3000 79.2000 1 7 299
1916295N12088 1916 61 NI BB NOT_NAMED 1916-10-24 18:00:00 TS 18.5678 78.6885 main 0 0 _________OP___ -1 18.7000 78.4000 TC 30 18.4687 78.9048 1 6 301
1916295N12088 1916 61 NI BB NOT_NAMED 1916-10-24 21:00:00 TS 18.7297 78.4254 main 0 0 _________PP___ -1 18.8599 78.1549 TC 30 18.6430 78.6057 1 6 304
1916295N12088 1916 61 NI BB NOT_NAMED 1916-10-25 00:00:00 TS 18.8805 78.2025 main 0 0 _________OP___ -1 19.0000 78.0000 TC 30 18.8207 78.3037 1 5 304
1916295N12088 1916 61 NI AS NOT_NAMED 1916-10-25 03:00:00 NR 19.0000 78.0000 main 0 __________O___ -1 TC 19.0000 78.0000 1 5 302

IBTrACS Databaseについて

本データベースは、米国NOAAが公開する1842年以降の世界の熱帯低気圧のベストトラックデータアーカイブInternational Best Track Archive for Climate Stewardship (IBTrACS)を、ウェブで閲覧しやすい形式に変換したものです。

最終更新日:2021-11-26